Warren, Indiana
Current Conditions -  °F | °C
As of 7:15 PM on Friday 24 Oct 2014 (Local Time) from KHHG Reporting Station
Scattered Clouds Scattered Clouds  
Wind Chill: 58°   Ceiling: Unl
Heat Index: 58°   Visibility: 10mi
Dew Point: 51°   Wind: 3mph
Humidity: 77%   Direction: 190°S
Pressure: 30"   Gusts: NA
Location:  40.68°N, 85.43°W
Report Text: KHHG 242315Z AUTO 19003KT 10SM SCT035 SCT043 15/11 A3000 RMK AO2 T01470107
Loading
Personal Weather Stations






























Interactive Weather Map
Tropical Storm Tracking
New forecast layout! Learn more

10-Day Weather Forecast

Advertisements
Track Severe Weather on mobile